createdAt,value
2018-05-11T00:00:46.988Z,1011.9
2018-05-11T00:01:46.971Z,1011.92
2018-05-11T00:02:46.957Z,1011.91
2018-05-11T00:03:46.938Z,1011.88
2018-05-11T00:04:46.923Z,1011.87
2018-05-11T00:05:46.905Z,1011.91
2018-05-11T00:06:47.094Z,1011.92
2018-05-11T00:07:46.873Z,1011.88
2018-05-11T00:08:46.858Z,1011.92
2018-05-11T00:09:46.843Z,1011.92
2018-05-11T00:10:46.826Z,1011.88
2018-05-11T00:11:46.807Z,1011.88
2018-05-11T00:12:46.792Z,1011.91
2018-05-11T00:13:46.779Z,1011.93
2018-05-11T00:14:46.769Z,1011.96
2018-05-11T00:15:46.744Z,1011.97
2018-05-11T00:16:46.734Z,1011.99
2018-05-11T00:17:46.711Z,1011.96
2018-05-11T00:18:46.695Z,1011.96
2018-05-11T00:19:46.679Z,1011.96
2018-05-11T00:20:46.666Z,1011.95
2018-05-11T00:21:46.648Z,1011.95
2018-05-11T00:22:46.633Z,1011.91
2018-05-11T00:23:46.613Z,1011.93
2018-05-11T00:24:46.603Z,1011.92
2018-05-11T00:25:46.579Z,1011.9
2018-05-11T00:26:46.565Z,1011.91
2018-05-11T00:27:46.551Z,1011.92
2018-05-11T00:28:46.534Z,1011.92
2018-05-11T00:29:46.516Z,1011.93
2018-05-11T00:30:46.500Z,1011.94
2018-05-11T00:31:46.487Z,1011.97
2018-05-11T00:32:46.471Z,1011.92
2018-05-11T00:33:46.453Z,1011.95
2018-05-11T00:34:46.435Z,1011.9
2018-05-11T00:35:46.417Z,1011.89
2018-05-11T00:36:46.406Z,1011.88
2018-05-11T00:37:46.386Z,1011.89
2018-05-11T00:38:46.369Z,1011.91
2018-05-11T00:39:46.354Z,1011.92
2018-05-11T00:40:46.337Z,1011.91
2018-05-11T00:41:46.323Z,1011.93
2018-05-11T00:42:46.303Z,1011.92
2018-05-11T00:43:46.286Z,1011.91
2018-05-11T00:44:46.274Z,1011.9
2018-05-11T00:45:46.255Z,1011.93
2018-05-11T00:46:46.238Z,1011.91
2018-05-11T00:47:46.222Z,1011.92
2018-05-11T00:48:46.203Z,1011.93
2018-05-11T00:49:46.188Z,1011.92
2018-05-11T00:50:46.173Z,1011.9
2018-05-11T00:51:46.158Z,1011.92
2018-05-11T00:52:46.141Z,1011.9
2018-05-11T00:53:46.122Z,1011.92
2018-05-11T00:54:46.106Z,1011.91
2018-05-11T00:55:46.091Z,1011.89
2018-05-11T00:56:46.073Z,1011.93
2018-05-11T00:57:46.055Z,1011.94
2018-05-11T00:58:46.040Z,1011.95
2018-05-11T00:59:46.025Z,1012
2018-05-11T01:00:46.007Z,1012.03
2018-05-11T01:01:45.993Z,1012.04
2018-05-11T01:02:45.974Z,1012.01
2018-05-11T01:03:45.959Z,1012.02
2018-05-11T01:04:45.940Z,1012.01
2018-05-11T01:05:45.928Z,1012.02
2018-05-11T01:06:45.908Z,1012.02
2018-05-11T01:07:45.893Z,1012.03
2018-05-11T01:08:45.874Z,1012.03
2018-05-11T01:09:45.859Z,1012.02
2018-05-11T01:10:45.846Z,1012.08
2018-05-11T01:11:45.834Z,1012.09
2018-05-11T01:12:45.836Z,1012.1
2018-05-11T01:13:45.790Z,1012.08
2018-05-11T01:14:45.775Z,1012.12
2018-05-11T01:15:45.761Z,1012.13
2018-05-11T01:16:45.743Z,1012.15
2018-05-11T01:17:45.727Z,1012.17
2018-05-11T01:18:45.708Z,1012.15
2018-05-11T01:19:45.691Z,1012.19
2018-05-11T01:20:45.675Z,1012.19
2018-05-11T01:21:45.658Z,1012.19
2018-05-11T01:22:45.640Z,1012.2
2018-05-11T01:23:45.625Z,1012.18
2018-05-11T01:24:45.607Z,1012.14
2018-05-11T01:25:45.591Z,1012.14
2018-05-11T01:26:45.575Z,1012.11
2018-05-11T01:27:45.562Z,1012.13
2018-05-11T01:28:45.542Z,1012.1
2018-05-11T01:29:45.525Z,1012.12
2018-05-11T01:30:45.509Z,1012.1
2018-05-11T01:31:45.491Z,1012.08
2018-05-11T01:32:45.475Z,1012.05
2018-05-11T01:33:45.460Z,1012.07
2018-05-11T01:34:45.447Z,1012.09
2018-05-11T01:35:45.426Z,1012.07
2018-05-11T01:36:45.411Z,1012.08
2018-05-11T01:37:45.393Z,1012.11
2018-05-11T01:38:45.375Z,1012.14
2018-05-11T01:39:45.380Z,1012.12
2018-05-11T01:40:45.345Z,1012.11
2018-05-11T01:41:45.328Z,1012.14
2018-05-11T01:42:45.311Z,1012.14
2018-05-11T01:43:45.294Z,1012.16
2018-05-11T01:44:45.276Z,1012.14
2018-05-11T01:45:45.259Z,1012.14
2018-05-11T01:46:45.243Z,1012.17
2018-05-11T01:47:45.227Z,1012.15
2018-05-11T01:48:45.275Z,1012.16
2018-05-11T01:49:45.194Z,1012.16
2018-05-11T01:50:45.176Z,1012.14
2018-05-11T01:51:45.161Z,1012.13
2018-05-11T01:52:45.147Z,1012.12
2018-05-11T01:53:45.126Z,1012.13
2018-05-11T01:54:45.110Z,1012.09
2018-05-11T01:55:45.095Z,1012.11
2018-05-11T01:56:45.083Z,1012.15
2018-05-11T01:57:45.062Z,1012.12
2018-05-11T01:58:45.048Z,1012.15
2018-05-11T01:59:45.029Z,1012.16
2018-05-11T02:00:45.014Z,1012.15
2018-05-11T02:01:44.996Z,1012.16
2018-05-11T02:02:44.980Z,1012.15
2018-05-11T02:03:44.962Z,1012.17
2018-05-11T02:04:44.945Z,1012.18
2018-05-11T02:05:44.928Z,1012.15
2018-05-11T02:06:45.113Z,1012.19
2018-05-11T02:07:44.896Z,1012.19
2018-05-11T02:08:44.877Z,1012.16
2018-05-11T02:09:44.861Z,1012.19
2018-05-11T02:10:44.846Z,1012.18
2018-05-11T02:11:44.827Z,1012.19
2018-05-11T02:12:44.817Z,1012.21
2018-05-11T02:13:44.795Z,1012.2
2018-05-11T02:14:44.780Z,1012.25
2018-05-11T02:15:44.763Z,1012.22
2018-05-11T02:16:44.747Z,1012.22
2018-05-11T02:17:44.729Z,1012.26
2018-05-11T02:18:44.713Z,1012.25
2018-05-11T02:19:44.695Z,1012.23
2018-05-11T02:20:44.679Z,1012.22
2018-05-11T02:21:44.662Z,1012.23
2018-05-11T02:22:44.646Z,1012.24
2018-05-11T02:23:44.628Z,1012.23
2018-05-11T02:24:44.615Z,1012.26
2018-05-11T02:25:44.594Z,1012.28
2018-05-11T02:26:44.582Z,1012.27
2018-05-11T02:27:44.560Z,1012.25
2018-05-11T02:28:44.547Z,1012.23
2018-05-11T02:29:44.528Z,1012.21
2018-05-11T02:30:44.510Z,1012.19
2018-05-11T02:31:44.497Z,1012.19
2018-05-11T02:32:44.477Z,1012.17
2018-05-11T02:33:44.461Z,1012.19
2018-05-11T02:34:44.444Z,1012.23
2018-05-11T02:35:44.430Z,1012.19
2018-05-11T02:36:44.412Z,1012.23
2018-05-11T02:37:44.393Z,1012.19
2018-05-11T02:38:44.375Z,1012.18
2018-05-11T02:39:44.361Z,1012.18
2018-05-11T02:40:44.343Z,1012.16
2018-05-11T02:41:44.327Z,1012.15
2018-05-11T02:42:44.313Z,1012.13
2018-05-11T02:43:44.293Z,1012.11
2018-05-11T02:44:44.277Z,1012.1
2018-05-11T02:45:44.261Z,1012.08
2018-05-11T02:46:44.244Z,1012.06
2018-05-11T02:47:44.239Z,1012.02
2018-05-11T02:48:44.212Z,1012.04
2018-05-11T02:49:44.197Z,1012.02
2018-05-11T02:50:44.312Z,1012.05
2018-05-11T02:51:44.155Z,1012.06
2018-05-11T02:52:44.141Z,1012.12
2018-05-11T02:53:44.127Z,1012.11
2018-05-11T02:54:44.108Z,1012.12
2018-05-11T02:55:44.088Z,1012.12
2018-05-11T02:56:44.072Z,1012.15
2018-05-11T02:57:44.056Z,1012.15
2018-05-11T02:58:44.040Z,1012.18
2018-05-11T02:59:44.030Z,1012.19
2018-05-11T03:00:44.003Z,1012.19
2018-05-11T03:01:43.995Z,1012.19
2018-05-11T03:02:43.973Z,1012.15
2018-05-11T03:03:43.953Z,1012.16
2018-05-11T03:04:43.935Z,1012.17
2018-05-11T03:05:43.918Z,1012.15
2018-05-11T03:06:43.900Z,1012.12
2018-05-11T03:07:43.887Z,1012.19
2018-05-11T03:08:43.866Z,1012.18
2018-05-11T03:09:43.848Z,1012.16
2018-05-11T03:10:43.836Z,1012.21
2018-05-11T03:11:43.821Z,1012.22
2018-05-11T03:12:43.797Z,1012.23
2018-05-11T03:13:43.785Z,1012.25
2018-05-11T03:14:43.769Z,1012.3
2018-05-11T03:15:43.745Z,1012.26
2018-05-11T03:16:43.732Z,1012.28
2018-05-11T03:17:43.710Z,1012.26
2018-05-11T03:18:43.885Z,1012.31
2018-05-11T03:19:43.676Z,1012.28
2018-05-11T03:20:43.664Z,1012.29
2018-05-11T03:21:43.640Z,1012.31
2018-05-11T03:22:43.624Z,1012.28
2018-05-11T03:23:43.607Z,1012.31
2018-05-11T03:24:43.590Z,1012.31
2018-05-11T03:25:43.572Z,1012.29
2018-05-11T03:26:43.559Z,1012.29
2018-05-11T03:27:43.538Z,1012.3
2018-05-11T03:28:43.521Z,1012.32
2018-05-11T03:29:43.504Z,1012.32
2018-05-11T03:30:43.490Z,1012.3
2018-05-11T03:31:43.471Z,1012.33
2018-05-11T03:32:43.452Z,1012.33
2018-05-11T03:33:43.440Z,1012.33
2018-05-11T03:34:43.419Z,1012.33
2018-05-11T03:35:43.403Z,1012.34
2018-05-11T03:36:43.384Z,1012.34
2018-05-11T03:37:43.367Z,1012.4
2018-05-11T03:38:43.350Z,1012.34
2018-05-11T03:39:43.336Z,1012.36
2018-05-11T03:40:43.313Z,1012.4
2018-05-11T03:41:43.298Z,1012.4
2018-05-11T03:42:43.280Z,1012.46
2018-05-11T03:43:43.264Z,1012.48
2018-05-11T03:44:43.247Z,1012.45
2018-05-11T03:45:43.229Z,1012.46
2018-05-11T03:46:43.211Z,1012.47
2018-05-11T03:47:43.196Z,1012.49
2018-05-11T03:48:43.177Z,1012.48
2018-05-11T03:49:43.160Z,1012.52
2018-05-11T03:50:43.142Z,1012.51
2018-05-11T03:51:43.125Z,1012.52
2018-05-11T03:52:43.108Z,1012.52
2018-05-11T03:53:43.089Z,1012.56
2018-05-11T03:54:43.075Z,1012.54
2018-05-11T03:55:43.058Z,1012.55
2018-05-11T03:56:43.038Z,1012.56
2018-05-11T03:57:43.020Z,1012.57
2018-05-11T03:58:43.007Z,1012.55
2018-05-11T03:59:42.988Z,1012.59
2018-05-11T04:00:42.972Z,1012.59
2018-05-11T04:01:42.952Z,1012.59
2018-05-11T04:02:42.935Z,1012.57
2018-05-11T04:03:42.919Z,1012.57
2018-05-11T04:04:42.902Z,1012.61
2018-05-11T04:05:42.883Z,1012.63
2018-05-11T04:06:42.870Z,1012.63
2018-05-11T04:07:42.861Z,1012.62
2018-05-11T04:08:42.831Z,1012.64
2018-05-11T04:09:42.819Z,1012.68
2018-05-11T04:10:42.808Z,1012.66
2018-05-11T04:11:42.781Z,1012.68
2018-05-11T04:12:42.763Z,1012.65
2018-05-11T04:13:42.748Z,1012.66
2018-05-11T04:14:42.729Z,1012.66
2018-05-11T04:15:42.727Z,1012.68
2018-05-11T04:16:42.696Z,1012.69
2018-05-11T04:17:42.683Z,1012.73
2018-05-11T04:18:42.663Z,1012.75
2018-05-11T04:19:42.649Z,1012.73
2018-05-11T04:20:42.677Z,1012.68
2018-05-11T04:21:42.615Z,1012.74
2018-05-11T04:22:42.598Z,1012.71
2018-05-11T04:23:42.578Z,1012.71
2018-05-11T04:24:42.561Z,1012.75
2018-05-11T04:25:42.544Z,1012.72
2018-05-11T04:26:42.528Z,1012.72
2018-05-11T04:27:42.511Z,1012.77
2018-05-11T04:28:42.527Z,1012.77
2018-05-11T04:29:42.480Z,1012.77
2018-05-11T04:30:42.461Z,1012.78
2018-05-11T04:31:42.444Z,1012.79
2018-05-11T04:32:42.438Z,1012.73
2018-05-11T04:33:42.411Z,1012.77
2018-05-11T04:34:42.396Z,1012.79
2018-05-11T04:35:42.380Z,1012.76
2018-05-11T04:36:42.365Z,1012.78
2018-05-11T04:37:42.344Z,1012.8
2018-05-11T04:38:42.331Z,1012.81
2018-05-11T04:39:42.314Z,1012.83
2018-05-11T04:40:42.296Z,1012.86
2018-05-11T04:41:42.278Z,1012.84
2018-05-11T04:42:42.263Z,1012.87
2018-05-11T04:43:42.247Z,1012.86
2018-05-11T04:44:42.231Z,1012.91
2018-05-11T04:45:42.215Z,1012.9
2018-05-11T04:46:42.198Z,1012.92
2018-05-11T04:47:42.181Z,1012.93
2018-05-11T04:48:42.164Z,1012.94
2018-05-11T04:49:42.151Z,1012.95
2018-05-11T04:50:42.133Z,1012.93
2018-05-11T04:51:42.116Z,1012.94
2018-05-11T04:52:42.098Z,1012.94
2018-05-11T04:53:42.083Z,1012.94
2018-05-11T04:54:42.068Z,1012.97
2018-05-11T04:55:42.058Z,1012.94
2018-05-11T04:56:42.034Z,1012.95
2018-05-11T04:57:42.020Z,1012.98
2018-05-11T04:58:42.004Z,1012.94
2018-05-11T04:59:41.986Z,1012.97
2018-05-11T05:00:41.971Z,1013
2018-05-11T05:01:41.956Z,1013
2018-05-11T05:02:41.941Z,1013.01
2018-05-11T05:03:41.923Z,1013.01
2018-05-11T05:04:41.907Z,1013.01
2018-05-11T05:05:41.891Z,1013.02
2018-05-11T05:06:41.877Z,1013.03
2018-05-11T05:07:41.860Z,1012.98
2018-05-11T05:08:41.845Z,1013.01
2018-05-11T05:09:41.830Z,1012.99
2018-05-11T05:10:41.812Z,1012.97
2018-05-11T05:11:41.799Z,1012.97
2018-05-11T05:12:41.786Z,1012.98
2018-05-11T05:13:41.769Z,1013.02
2018-05-11T05:14:41.749Z,1012.99
2018-05-11T05:15:41.736Z,1012.99
2018-05-11T05:16:41.717Z,1013
2018-05-11T05:17:41.713Z,1013.05
2018-05-11T05:18:41.687Z,1012.99
2018-05-11T05:19:41.672Z,1013.01
2018-05-11T05:20:41.658Z,1013.05
2018-05-11T05:21:41.640Z,1013.05
2018-05-11T05:22:41.627Z,1013.03
2018-05-11T05:23:41.610Z,1013.08
2018-05-11T05:24:41.599Z,1013.07
2018-05-11T05:25:41.582Z,1013.07
2018-05-11T05:26:41.564Z,1013.1
2018-05-11T05:27:41.550Z,1013.08
2018-05-11T05:28:41.536Z,1013.11
2018-05-11T05:29:41.519Z,1013.14
2018-05-11T05:30:41.502Z,1013.14
2018-05-11T05:31:41.486Z,1013.1
2018-05-11T05:32:41.470Z,1013.15
2018-05-11T05:33:41.456Z,1013.14
2018-05-11T05:34:41.440Z,1013.14
2018-05-11T05:35:41.424Z,1013.14
2018-05-11T05:36:41.409Z,1013.12
2018-05-11T05:37:41.393Z,1013.1
2018-05-11T05:38:41.378Z,1013.13
2018-05-11T05:39:41.365Z,1013.11
2018-05-11T05:40:41.348Z,1013.1
2018-05-11T05:41:41.331Z,1013.11
2018-05-11T05:42:41.324Z,1013.1
2018-05-11T05:43:41.302Z,1013.11
2018-05-11T05:44:41.289Z,1013.1
2018-05-11T05:45:41.273Z,1013.16
2018-05-11T05:46:41.257Z,1013.15
2018-05-11T05:47:41.241Z,1013.13
2018-05-11T05:48:41.229Z,1013.1
2018-05-11T05:49:41.214Z,1013.12
2018-05-11T05:50:41.196Z,1013.13
2018-05-11T05:51:41.192Z,1013.09
2018-05-11T05:52:41.168Z,1013.12
2018-05-11T05:53:41.154Z,1013.08
2018-05-11T05:54:41.137Z,1013.09
2018-05-11T05:55:41.120Z,1013.03
2018-05-11T05:56:41.109Z,1013.07
2018-05-11T05:57:41.100Z,1013.03
2018-05-11T05:58:41.077Z,1013.03
2018-05-11T05:59:41.064Z,1013.01
2018-05-11T06:00:41.047Z,1013.01
2018-05-11T06:01:41.032Z,1013.06
2018-05-11T06:02:41.017Z,1013.07
2018-05-11T06:03:41.003Z,1012.99
2018-05-11T06:04:41.090Z,1013.05
2018-05-11T06:05:40.973Z,1013.03
2018-05-11T06:06:40.960Z,1013.03
2018-05-11T06:07:41.147Z,1013.06
2018-05-11T06:08:40.932Z,1013.02
2018-05-11T06:09:40.917Z,1013.07
2018-05-11T06:10:40.900Z,1013.03
2018-05-11T06:11:40.888Z,1013.07
2018-05-11T06:12:40.873Z,1013.1
2018-05-11T06:13:40.856Z,1013.04
2018-05-11T06:14:40.843Z,1013.06
2018-05-11T06:15:40.873Z,1013.01
2018-05-11T06:16:40.815Z,1013.05
2018-05-11T06:17:40.902Z,1013.07
2018-05-11T06:18:40.793Z,1013.04
2018-05-11T06:19:40.771Z,1013.07
2018-05-11T06:20:40.762Z,1013.13
2018-05-11T06:21:40.742Z,1013.07
2018-05-11T06:22:40.727Z,1013.08
2018-05-11T06:23:40.712Z,1013.07
2018-05-11T06:24:40.699Z,1013.09
2018-05-11T06:25:40.684Z,1013.13
2018-05-11T06:26:40.671Z,1013.14
2018-05-11T06:27:40.659Z,1013.13
2018-05-11T06:28:40.641Z,1013.14
2018-05-11T06:29:40.627Z,1013.18
2018-05-11T06:30:40.617Z,1013.18
2018-05-11T06:31:40.601Z,1013.17
2018-05-11T06:32:40.587Z,1013.18
2018-05-11T06:33:40.572Z,1013.17
2018-05-11T06:34:40.557Z,1013.16
2018-05-11T06:35:40.546Z,1013.16
2018-05-11T06:36:40.530Z,1013.19
2018-05-11T06:37:40.517Z,1013.16
2018-05-11T06:38:40.500Z,1013.11
2018-05-11T06:39:40.487Z,1013.14
2018-05-11T06:40:40.507Z,1013.12
2018-05-11T06:41:40.461Z,1013.09
2018-05-11T06:42:40.445Z,1013.09
2018-05-11T06:43:40.430Z,1013.12
2018-05-11T06:44:40.420Z,1013.1
2018-05-11T06:45:40.405Z,1013.08
2018-05-11T06:46:40.390Z,1013.09
2018-05-11T06:47:40.375Z,1013.08
2018-05-11T06:48:40.364Z,1013.06
2018-05-11T06:49:40.351Z,1013.07
2018-05-11T06:50:40.344Z,1013.05
2018-05-11T06:51:40.320Z,1013
2018-05-11T06:52:40.307Z,1013.01
2018-05-11T06:53:40.292Z,1013.03
2018-05-11T06:54:40.278Z,1013.01
2018-05-11T06:55:40.266Z,1012.98
2018-05-11T06:56:40.249Z,1012.96
2018-05-11T06:57:40.236Z,1012.97
2018-05-11T06:58:40.221Z,1013.02
2018-05-11T06:59:40.208Z,1012.98
2018-05-11T07:00:40.192Z,1012.94
2018-05-11T07:01:40.196Z,1012.98
2018-05-11T07:02:40.170Z,1012.98
2018-05-11T07:03:40.155Z,1013
2018-05-11T07:04:40.139Z,1013
2018-05-11T07:05:40.133Z,1013.03
2018-05-11T07:06:40.111Z,1013.06
2018-05-11T07:07:40.184Z,1013.04
2018-05-11T07:08:40.085Z,1013.06
2018-05-11T07:09:40.072Z,1013.04
2018-05-11T07:10:40.059Z,1012.98
2018-05-11T07:11:40.045Z,1012.99
2018-05-11T07:12:40.032Z,1013.03
2018-05-11T07:13:40.018Z,1013.03
2018-05-11T07:14:40.006Z,1013.03
2018-05-11T07:15:39.991Z,1013.03
2018-05-11T07:16:39.980Z,1013.09
2018-05-11T07:17:39.964Z,1013.06
2018-05-11T07:18:39.952Z,1013.05
2018-05-11T07:19:39.953Z,1013.06
2018-05-11T07:20:39.926Z,1013.1
2018-05-11T07:21:39.913Z,1013.08
2018-05-11T07:22:39.907Z,1013.05
2018-05-11T07:23:39.885Z,1013.1
2018-05-11T07:24:39.878Z,1013.03
2018-05-11T07:25:39.920Z,1013.05
2018-05-11T07:26:39.854Z,1013.01
2018-05-11T07:27:39.836Z,1013
2018-05-11T07:28:39.822Z,1013.04
2018-05-11T07:29:39.808Z,1013
2018-05-11T07:30:39.797Z,1012.99
2018-05-11T07:31:39.787Z,1012.99
2018-05-11T07:32:39.772Z,1012.98
2018-05-11T07:33:39.760Z,1012.98
2018-05-11T07:34:39.745Z,1012.99
2018-05-11T07:35:39.733Z,1013.01
2018-05-11T07:36:39.718Z,1013
2018-05-11T07:37:39.706Z,1012.99
2018-05-11T07:38:39.692Z,1013.02
2018-05-11T07:39:39.680Z,1013.02
2018-05-11T07:40:39.746Z,1013.02
2018-05-11T07:41:39.656Z,1013.03
2018-05-11T07:42:39.642Z,1013.01
2018-05-11T07:43:39.630Z,1013.01
2018-05-11T07:44:39.617Z,1013.06
2018-05-11T07:45:39.603Z,1013.05
2018-05-11T07:46:39.593Z,1013.05
2018-05-11T07:47:39.580Z,1013.01
2018-05-11T07:48:39.582Z,1013
2018-05-11T07:49:39.556Z,1013.04
2018-05-11T07:50:39.543Z,1013.04
2018-05-11T07:51:39.568Z,1013.07
2018-05-11T07:52:39.516Z,1013.06
2018-05-11T07:53:39.505Z,1013.06
2018-05-11T07:54:39.493Z,1013.08
2018-05-11T07:55:39.483Z,1013.09
2018-05-11T07:56:39.468Z,1013.07
2018-05-11T07:57:39.457Z,1013.09
2018-05-11T07:58:39.443Z,1013.12
2018-05-11T07:59:39.434Z,1013.09
2018-05-11T08:00:39.420Z,1013.09
2018-05-11T08:01:39.407Z,1013.12
2018-05-11T08:02:39.393Z,1013.12
2018-05-11T08:03:39.385Z,1013.07
2018-05-11T08:04:39.371Z,1013.08
2018-05-11T08:05:39.360Z,1013.08
2018-05-11T08:06:39.348Z,1013.03
2018-05-11T08:07:39.538Z,1013.02
2018-05-11T08:08:39.325Z,1013.01
2018-05-11T08:09:39.314Z,1013.02
2018-05-11T08:10:39.299Z,1012.95
2018-05-11T08:11:39.289Z,1013
2018-05-11T08:12:39.276Z,1013.03
2018-05-11T08:13:39.265Z,1012.98
2018-05-11T08:14:39.256Z,1012.98
2018-05-11T08:15:39.246Z,1012.99
2018-05-11T08:16:39.237Z,1012.97
2018-05-11T08:17:39.221Z,1012.99
2018-05-11T08:18:39.207Z,1013.05
2018-05-11T08:19:39.198Z,1013.05
2018-05-11T08:20:39.187Z,1013.09
2018-05-11T08:21:39.175Z,1013.06
2018-05-11T08:22:39.179Z,1013.06
2018-05-11T08:23:39.163Z,1013.08
2018-05-11T08:24:39.141Z,1013.04
2018-05-11T08:25:39.135Z,1013.11
2018-05-11T08:26:39.185Z,1013.04
2018-05-11T08:27:39.113Z,1012.96
2018-05-11T08:28:39.101Z,1012.95
2018-05-11T08:29:39.091Z,1012.93
2018-05-11T08:30:39.080Z,1012.92
2018-05-11T08:31:39.070Z,1013.06
2018-05-11T08:32:39.061Z,1013.06
2018-05-11T08:33:39.053Z,1013.03
2018-05-11T08:34:39.044Z,1012.99
2018-05-11T08:35:39.034Z,1012.94
2018-05-11T08:36:39.023Z,1012.88
2018-05-11T08:37:39.015Z,1012.88
2018-05-11T08:38:39.007Z,1012.96
2018-05-11T08:39:38.995Z,1012.95
2018-05-11T08:40:38.987Z,1012.9
2018-05-11T08:41:38.985Z,1012.87
2018-05-11T08:42:38.967Z,1012.84
2018-05-11T08:43:39.163Z,1012.84
2018-05-11T08:44:38.950Z,1012.84
2018-05-11T08:45:38.950Z,1012.85
2018-05-11T08:46:38.937Z,1012.84
2018-05-11T08:47:38.920Z,1012.85
2018-05-11T08:48:38.911Z,1012.8
2018-05-11T08:49:38.901Z,1012.9
2018-05-11T08:50:38.889Z,1012.89
2018-05-11T08:51:38.882Z,1012.83
2018-05-11T08:52:38.872Z,1012.81
2018-05-11T08:53:38.861Z,1012.84
2018-05-11T08:54:38.858Z,1012.77
2018-05-11T08:55:38.843Z,1012.78
2018-05-11T08:56:38.833Z,1012.79
2018-05-11T08:57:38.824Z,1012.77
2018-05-11T08:58:38.813Z,1012.81
2018-05-11T08:59:38.805Z,1012.76
2018-05-11T09:00:38.794Z,1012.74
2018-05-11T09:01:38.787Z,1012.74
2018-05-11T09:02:38.785Z,1012.72
2018-05-11T09:03:38.768Z,1012.66
2018-05-11T09:04:38.967Z,1012.64
2018-05-11T09:05:38.752Z,1012.63
2018-05-11T09:06:38.744Z,1012.62
2018-05-11T09:07:38.736Z,1012.61
2018-05-11T09:08:38.808Z,1012.64
2018-05-11T09:09:38.717Z,1012.62
2018-05-11T09:10:38.706Z,1012.62
2018-05-11T09:11:38.695Z,1012.61
2018-05-11T09:12:38.683Z,1012.54
2018-05-11T09:13:38.672Z,1012.55
2018-05-11T09:14:38.663Z,1012.53
2018-05-11T09:15:38.653Z,1012.55
2018-05-11T09:16:38.645Z,1012.54
2018-05-11T09:17:38.631Z,1012.5
2018-05-11T09:18:38.622Z,1012.56
2018-05-11T09:19:38.613Z,1012.59
2018-05-11T09:20:38.602Z,1012.54
2018-05-11T09:21:38.596Z,1012.55
2018-05-11T09:22:38.580Z,1012.58
2018-05-11T09:23:38.573Z,1012.54
2018-05-11T09:24:38.566Z,1012.51
2018-05-11T09:25:38.558Z,1012.48
2018-05-11T09:26:38.544Z,1012.46
2018-05-11T09:27:38.534Z,1012.47
2018-05-11T09:28:38.527Z,1012.44
2018-05-11T09:29:38.516Z,1012.47
2018-05-11T09:30:38.510Z,1012.49
2018-05-11T09:31:38.496Z,1012.51
2018-05-11T09:32:38.488Z,1012.49
2018-05-11T09:33:38.478Z,1012.46
2018-05-11T09:34:38.467Z,1012.46
2018-05-11T09:35:38.459Z,1012.49
2018-05-11T09:36:38.450Z,1012.43
2018-05-11T09:37:38.440Z,1012.41
2018-05-11T09:38:38.431Z,1012.39
2018-05-11T09:39:38.504Z,1012.38
2018-05-11T09:40:38.414Z,1012.38
2018-05-11T09:41:38.403Z,1012.35
2018-05-11T09:42:38.405Z,1012.36
2018-05-11T09:43:38.387Z,1012.35
2018-05-11T09:44:38.380Z,1012.36
2018-05-11T09:45:38.369Z,1012.37
2018-05-11T09:46:38.360Z,1012.41
2018-05-11T09:47:38.353Z,1012.37
2018-05-11T09:48:38.346Z,1012.35
2018-05-11T09:49:38.338Z,1012.37
2018-05-11T09:50:38.326Z,1012.39
2018-05-11T09:51:38.324Z,1012.37
2018-05-11T09:52:38.310Z,1012.38
2018-05-11T09:53:38.300Z,1012.39
2018-05-11T09:54:38.292Z,1012.37
2018-05-11T09:55:38.281Z,1012.36
2018-05-11T09:56:38.273Z,1012.36
2018-05-11T09:57:38.265Z,1012.32
2018-05-11T09:58:38.257Z,1012.34
2018-05-11T09:59:38.251Z,1012.32
2018-05-11T10:00:38.242Z,1012.34
2018-05-11T10:01:38.264Z,1012.3
2018-05-11T10:02:38.224Z,1012.32
2018-05-11T10:03:38.220Z,1012.34
2018-05-11T10:04:38.208Z,1012.28
2018-05-11T10:05:38.201Z,1012.32
2018-05-11T10:06:38.194Z,1012.29
2018-05-11T10:07:38.387Z,1012.27
2018-05-11T10:08:38.177Z,1012.26
2018-05-11T10:09:38.168Z,1012.21
2018-05-11T10:10:38.161Z,1012.26
2018-05-11T10:11:38.157Z,1012.2
2018-05-11T10:12:38.146Z,1012.25
2018-05-11T10:13:38.136Z,1012.24
2018-05-11T10:14:38.127Z,1012.21
2018-05-11T10:15:38.123Z,1012.23
2018-05-11T10:16:38.119Z,1012.21
2018-05-11T10:17:38.112Z,1012.18
2018-05-11T10:18:38.103Z,1012.26
2018-05-11T10:19:38.091Z,1012.31
2018-05-11T10:20:38.084Z,1012.29
2018-05-11T10:21:38.076Z,1012.45
2018-05-11T10:22:38.072Z,1012.27
2018-05-11T10:23:38.065Z,1012.47
2018-05-11T10:24:38.058Z,1012.17
2018-05-11T10:25:38.046Z,1012.51
2018-05-11T10:26:38.040Z,1012.5
2018-05-11T10:27:38.041Z,1012.46
2018-05-11T10:28:38.041Z,1012.56
2018-05-11T10:29:38.031Z,1012.5
2018-05-11T10:30:38.027Z,1012.51
2018-05-11T10:31:38.019Z,1012.52
2018-05-11T10:32:38.015Z,1012.51
2018-05-11T10:33:38.016Z,1012.52
2018-05-11T10:34:38.014Z,1012.51
2018-05-11T10:35:38.007Z,1012.16
2018-05-11T10:36:38.004Z,1012.45
2018-05-11T10:37:38.003Z,1012.41
2018-05-11T10:38:38.008Z,1012.44
2018-05-11T10:39:38.003Z,1012.47
2018-05-11T10:40:37.999Z,1012.43
2018-05-11T10:41:37.997Z,1012.38
2018-05-11T10:42:37.996Z,1012.37
2018-05-11T10:43:37.996Z,1012.33
2018-05-11T10:44:37.997Z,1012.26
2018-05-11T10:45:37.994Z,1012.25
2018-05-11T10:46:37.995Z,1012.24
2018-05-11T10:47:38.000Z,1012.28
2018-05-11T10:48:38.026Z,1012.28
2018-05-11T10:49:38.001Z,1012.27
2018-05-11T10:50:38.001Z,1012.27
2018-05-11T10:51:38.007Z,1012.25
2018-05-11T10:52:38.010Z,1012.27
2018-05-11T10:53:38.008Z,1012.26
2018-05-11T10:54:38.011Z,1012.24
2018-05-11T10:55:38.016Z,1012.22
2018-05-11T10:56:38.021Z,1012.22
2018-05-11T10:57:38.028Z,1012.21
2018-05-11T10:58:38.033Z,1012.19
2018-05-11T10:59:38.028Z,1012.21
2018-05-11T11:00:38.032Z,1012.12
2018-05-11T11:01:38.032Z,1012.15
2018-05-11T11:02:38.037Z,1012.16
2018-05-11T11:03:38.042Z,1012.13
2018-05-11T11:04:38.044Z,1012.12
2018-05-11T11:05:38.047Z,1012.15
2018-05-11T11:06:38.052Z,1012.14
2018-05-11T11:07:38.059Z,1012.16
2018-05-11T11:08:38.062Z,1012.11
2018-05-11T11:09:38.067Z,1012.14
2018-05-11T11:10:38.072Z,1012.14
2018-05-11T11:11:38.072Z,1012.09
2018-05-11T11:12:38.083Z,1012.12
2018-05-11T11:13:38.190Z,1012.09
2018-05-11T11:14:38.083Z,1012.04
2018-05-11T11:15:38.089Z,1012.08
2018-05-11T11:16:38.093Z,1012.03
2018-05-11T11:17:38.097Z,1012.01
2018-05-11T11:18:38.102Z,1012.01
2018-05-11T11:19:38.109Z,1012.05
2018-05-11T11:20:38.109Z,1012.01
2018-05-11T11:21:38.116Z,1011.98
2018-05-11T11:22:38.126Z,1012.01
2018-05-11T11:23:38.123Z,1012.03
2018-05-11T11:24:38.129Z,1011.96
2018-05-11T11:25:38.144Z,1011.94
2018-05-11T11:26:38.141Z,1011.89
2018-05-11T11:27:38.144Z,1011.91
2018-05-11T11:28:38.155Z,1011.87
2018-05-11T11:29:38.156Z,1011.86
2018-05-11T11:30:38.156Z,1011.82
2018-05-11T11:31:38.163Z,1011.86
2018-05-11T11:32:38.168Z,1011.85
2018-05-11T11:33:38.235Z,1011.9
2018-05-11T11:34:38.190Z,1011.9
2018-05-11T11:35:38.187Z,1011.87
2018-05-11T11:36:38.216Z,1011.9
2018-05-11T11:37:38.195Z,1011.84
2018-05-11T11:38:38.198Z,1011.87
2018-05-11T11:39:38.215Z,1011.87
2018-05-11T11:40:38.207Z,1011.85
2018-05-11T11:41:38.212Z,1011.86
2018-05-11T11:42:38.222Z,1011.78
2018-05-11T11:43:38.223Z,1011.82
2018-05-11T11:44:38.227Z,1011.77
2018-05-11T11:45:38.236Z,1011.75
2018-05-11T11:46:38.239Z,1011.68
2018-05-11T11:47:38.305Z,1011.69
2018-05-11T11:48:38.249Z,1011.68
2018-05-11T11:49:38.259Z,1011.68
2018-05-11T11:50:38.258Z,1011.67
2018-05-11T11:51:38.264Z,1011.65
2018-05-11T11:52:38.270Z,1011.63
2018-05-11T11:53:38.274Z,1011.56
2018-05-11T11:54:38.284Z,1011.5
2018-05-11T11:55:38.288Z,1011.55
2018-05-11T11:56:38.290Z,1011.53
2018-05-11T11:57:38.296Z,1011.53
2018-05-11T11:58:38.302Z,1011.57
2018-05-11T11:59:38.308Z,1011.54
2018-05-11T12:00:38.314Z,1011.58
2018-05-11T12:01:38.328Z,1011.55
2018-05-11T12:02:38.325Z,1011.51
2018-05-11T12:03:38.331Z,1011.48
2018-05-11T12:04:38.336Z,1011.48
2018-05-11T12:05:38.345Z,1011.47
2018-05-11T12:06:38.352Z,1011.48
2018-05-11T12:07:38.556Z,1011.44
2018-05-11T12:08:38.360Z,1011.45